Jaime Santiago

Ojeador - Osasuna
4 Jun 2028
Domingo
Continuar

Personalidad

Adaptabilidad (1) Ambición (10) Controversia (13) Lealtad (8) Presión (14) Profesionalismo (3) Deportividad (10) Temperamento (13)

Perfil

Estilo de dirección Democrático
Licencia Continental C
Determinación 11
Gestión de personas 10
Motivación 13
Disciplina 10
Satisfacción laboral
100%
Fatiga
0%
Cargo Ojeador
Salario 93.8K p/s
Contrato 14.03.2030

Rendimiento

Comportamiento Bueno
Efectividad del entrenamiento
51%
Desarrollo de jugadores
40%
Prevención de lesiones
25%
Implementación táctica
25%

Eventos recientes

Evaluó a un jugador ahora
Presentó un informe a la directiva ahora

Actualmente siguiendo

60
Jugador Club Estado Habilidad Confianza Observado Última observación Último voto
Martim Cunha Porto Activo 111 / 122 40% 3 02.06.2028 -
Miguel Figueiredo Benfica Activo 119 / 141 40% 2 02.06.2028 -
Lennon Miller Udinese Activo 141 / 152 40% 1 02.06.2028 -
Pablo Santiago Castellón Perdido 129 / 141 79% 1 01.06.2028 -
Matvey Bardachev Zenit Activo 109 / 121 40% 1 24.01.2028 -
Felipe Faúndez O'Higgins Activo 96 / 118 40% 1 24.01.2028 -
Bahmed Deuff FC Metz Activo 123 / 137 40% 2 17.01.2028 -
Josh King Chelsea Activo 144 / 143 40% 1 17.01.2028 -
Jorge Salinas Racing Santander Activo 129 / 133 40% 1 17.01.2028 -
Dylan Gorosito Boca Juniors Activo 114 / 128 40% 4 03.01.2028 -
Vimal Yoganathan Barnsley Activo 103 / 117 40% 1 01.01.2028 -
Caleb Yirenkyi Coventry City Activo 140 / 137 40% 1 01.01.2028 -
Nnamdi Obafemi Remo Stars Activo 107 / 93 40% 1 01.01.2028 -
Wilmar Borja La Equidad Activo 108 / 109 40% 1 28.08.2027 -
Elias Baum Eintracht Frankfurt Activo 133 / 134 40% 1 18.08.2027 -
Christ Inao Oulaï Fiorentina Activo 136 / 153 40% 1 17.08.2027 -
Matías Gómez Talleres Activo 114 / 141 40% 1 17.08.2027 -
Sascha Britschgi Fiorentina Activo 121 / 121 40% 1 17.08.2027 -
Alejandro Leiva Beitar Jerusalem Activo 96 / 112 40% 1 16.08.2027 -
Davide Bartesaghi AC Milan Activo 142 / 138 40% 1 16.08.2027 -
Juan David Arizala Udinese Activo 125 / 143 40% 1 16.08.2027 -
Niccolò Fortini Fiorentina Activo 133 / 140 40% 2 14.08.2027 -
George Abbott Tottenham Activo 118 / 124 40% 2 10.08.2027 -
Alejandro Almaraz Oviedo Activo 118 / 112 40% 3 09.08.2027 -
Sergiu Perciun Torino Activo 105 / 116 40% 2 06.08.2027 -
Simone Kosijer Triestina Activo 101 / 112 40% 4 02.08.2027 -
Ishé Samuels-Smith Chelsea Activo 122 / 130 40% 2 30.07.2027 -
Bruno Alves Cruzeiro Activo 106 / 98 40% 3 29.07.2027 -
Axel Tape Bayer Leverkusen Activo 128 / 130 40% 4 29.07.2027 -
Andrés Cuenca Como Activo 106 / 126 40% 2 28.07.2027 -
Brandon Powell Blackburn Rovers Activo 109 / 115 40% 4 26.07.2027 -
Valentino Massi Sarmiento Activo 106 / 105 40% 2 26.07.2027 -
Ezra Mayers West Ham United Activo 122 / 118 40% 2 23.07.2027 -
Juan Morán Godoy Cruz Activo 108 / 112 40% 1 20.07.2027 -
Dani Calvo Oviedo Activo 123 / 116 76% 1 19.07.2027 Aprobar
Charlie Tasker Brighton Activo 104 / 106 40% 1 19.07.2027 -
Rabby Nzingoula West Bromwich Albion Activo 121 / 120 40% 3 18.07.2027 -
Rio Cardines Crystal Palace Activo 109 / 119 40% 1 18.07.2027 -
Somto Boniface Ipswich Town Activo 115 / 121 40% 2 17.07.2027 -
Alen Korošec ND Gorica Activo 104 / 111 40% 1 13.07.2027 -
Santiago Daniele Chacarita Juniors Activo 106 / 114 40% 1 29.06.2027 -
Juan Cruz Cortazzo Gimnasia La Plata Activo 107 / 105 40% 2 21.06.2027 -
Facundo Herrera Boca Juniors Activo 103 / 124 40% 1 20.06.2027 -
Melker Ellborg Sunderland Activo 122 / 124 40% 2 31.08.2026 -
Nikita Kokarev Krylya Sovetov Activo 115 / 128 40% 1 31.08.2026 -
Obed Vargas Atlético Madrid Activo 113 / 126 40% 2 28.08.2026 -
Elías Báez Atlanta United FC Activo 110 / 139 40% 1 28.08.2026 -
Yarek Gąsiorowski PSV Activo 126 / 149 40% 1 28.08.2026 -
Lucas Agazzi Benfica Activo 127 / 116 40% 1 26.08.2026 Más información
Mbekezeli Mbokazi Chicago Fire Activo 130 / 112 40% 1 26.08.2026 -
Breno Bidon Corinthians Activo 126 / 140 40% 1 25.08.2026 -
Lucas Cornejo Estudiantes Activo 113 / 108 40% 1 25.08.2026 -
Robin Risser RC Lens Activo 129 / 145 40% 2 24.08.2026 -
Edoardo Motta Lazio Activo 119 / 126 40% 1 24.08.2026 -
João Muniz Sporting CP Activo 107 / 110 40% 1 23.08.2026 -
Pablo Campos Levante Activo 132 / 120 40% 1 22.08.2026 -
Chris Brady Chicago Fire Activo 116 / 149 40% 1 22.08.2026 -
Eliás Montiel Athletic Bilbao Activo 134 / 126 40% 1 19.08.2026 -
Arthur Avom Ebong FC Lorient Activo 134 / 133 40% 1 17.08.2026 -
Diego Gaitán Maipú Activo 102 / 102 40% 1 10.08.2026 -